sensor_id;sensor_type;location;lat;lon;timestamp;temperature;humidity
70271;SHT31;57680;54.292;18.598;2023-05-29T00:01:20;10.00;77.85
70271;SHT31;57680;54.292;18.598;2023-05-29T00:03:46;10.10;77.42
70271;SHT31;57680;54.292;18.598;2023-05-29T00:06:11;10.17;77.17
70271;SHT31;57680;54.292;18.598;2023-05-29T00:08:36;10.22;77.20
70271;SHT31;57680;54.292;18.598;2023-05-29T00:11:01;10.30;77.12
70271;SHT31;57680;54.292;18.598;2023-05-29T00:13:27;10.40;76.93
70271;SHT31;57680;54.292;18.598;2023-05-29T00:15:52;10.52;76.84
70271;SHT31;57680;54.292;18.598;2023-05-29T00:18:18;10.55;76.78
70271;SHT31;57680;54.292;18.598;2023-05-29T00:20:43;10.62;76.56
70271;SHT31;57680;54.292;18.598;2023-05-29T00:23:08;10.66;76.36
70271;SHT31;57680;54.292;18.598;2023-05-29T00:25:33;10.73;75.98
70271;SHT31;57680;54.292;18.598;2023-05-29T00:27:59;10.72;75.78
70271;SHT31;57680;54.292;18.598;2023-05-29T00:30:24;10.73;75.61
70271;SHT31;57680;54.292;18.598;2023-05-29T00:32:50;10.83;75.35
70271;SHT31;57680;54.292;18.598;2023-05-29T00:35:15;10.83;75.15
70271;SHT31;57680;54.292;18.598;2023-05-29T00:37:41;10.85;75.43
70271;SHT31;57680;54.292;18.598;2023-05-29T00:40:06;10.89;75.12
70271;SHT31;57680;54.292;18.598;2023-05-29T00:42:32;10.97;74.70
70271;SHT31;57680;54.292;18.598;2023-05-29T00:44:58;10.96;74.49
70271;SHT31;57680;54.292;18.598;2023-05-29T00:47:24;10.97;74.57
70271;SHT31;57680;54.292;18.598;2023-05-29T00:49:49;10.97;74.47
70271;SHT31;57680;54.292;18.598;2023-05-29T00:52:15;11.03;74.16
70271;SHT31;57680;54.292;18.598;2023-05-29T00:54:43;11.03;74.16
70271;SHT31;57680;54.292;18.598;2023-05-29T00:57:13;11.06;73.73
70271;SHT31;57680;54.292;18.598;2023-05-29T00:59:39;11.03;73.53
70271;SHT31;57680;54.292;18.598;2023-05-29T01:02:06;11.03;73.67
70271;SHT31;57680;54.292;18.598;2023-05-29T01:04:32;11.00;73.78
70271;SHT31;57680;54.292;18.598;2023-05-29T01:06:57;11.00;73.49
70271;SHT31;57680;54.292;18.598;2023-05-29T01:09:23;11.00;73.45
70271;SHT31;57680;54.292;18.598;2023-05-29T01:21:27;10.73;75.58
70271;SHT31;57680;54.292;18.598;2023-05-29T01:27:10;10.69;75.33
70271;SHT31;57680;54.292;18.598;2023-05-29T01:29:39;10.68;75.06
70271;SHT31;57680;54.292;18.598;2023-05-29T01:32:05;10.68;75.39
70271;SHT31;57680;54.292;18.598;2023-05-29T01:34:31;10.64;74.99
70271;SHT31;57680;54.292;18.598;2023-05-29T01:36:57;10.61;75.32
70271;SHT31;57680;54.292;18.598;2023-05-29T01:39:23;10.56;75.84
70271;SHT31;57680;54.292;18.598;2023-05-29T01:41:50;10.49;76.23
70271;SHT31;57680;54.292;18.598;2023-05-29T01:44:16;10.40;77.05
70271;SHT31;57680;54.292;18.598;2023-05-29T01:46:43;10.33;77.39
70271;SHT31;57680;54.292;18.598;2023-05-29T01:49:09;10.27;77.42
70271;SHT31;57680;54.292;18.598;2023-05-29T01:51:35;10.25;76.78
70271;SHT31;57680;54.292;18.598;2023-05-29T01:54:01;10.21;77.18
70271;SHT31;57680;54.292;18.598;2023-05-29T01:56:27;10.14;77.57
70271;SHT31;57680;54.292;18.598;2023-05-29T01:58:56;10.13;77.96
70271;SHT31;57680;54.292;18.598;2023-05-29T02:01:22;10.04;77.87
70271;SHT31;57680;54.292;18.598;2023-05-29T02:03:48;10.01;77.72
70271;SHT31;57680;54.292;18.598;2023-05-29T02:06:14;9.98;77.68
70271;SHT31;57680;54.292;18.598;2023-05-29T02:08:40;9.94;77.66
70271;SHT31;57680;54.292;18.598;2023-05-29T02:11:05;9.93;77.84
70271;SHT31;57680;54.292;18.598;2023-05-29T02:13:31;9.91;77.99
70271;SHT31;57680;54.292;18.598;2023-05-29T02:15:56;9.87;78.67
70271;SHT31;57680;54.292;18.598;2023-05-29T02:18:23;9.86;78.24
70271;SHT31;57680;54.292;18.598;2023-05-29T02:20:49;10.00;77.22
70271;SHT31;57680;54.292;18.598;2023-05-29T02:23:15;10.15;76.39
70271;SHT31;57680;54.292;18.598;2023-05-29T02:25:40;10.22;75.51
70271;SHT31;57680;54.292;18.598;2023-05-29T02:28:05;10.30;75.63
70271;SHT31;57680;54.292;18.598;2023-05-29T02:30:31;10.38;75.30
70271;SHT31;57680;54.292;18.598;2023-05-29T02:32:56;10.40;75.28
70271;SHT31;57680;54.292;18.598;2023-05-29T02:35:22;10.46;75.76
70271;SHT31;57680;54.292;18.598;2023-05-29T02:37:50;10.58;75.50
70271;SHT31;57680;54.292;18.598;2023-05-29T02:40:16;10.55;75.97
70271;SHT31;57680;54.292;18.598;2023-05-29T02:42:43;10.54;76.10
70271;SHT31;57680;54.292;18.598;2023-05-29T02:45:08;10.59;76.27
70271;SHT31;57680;54.292;18.598;2023-05-29T02:47:35;10.58;76.42
70271;SHT31;57680;54.292;18.598;2023-05-29T02:50:01;10.62;76.63
70271;SHT31;57680;54.292;18.598;2023-05-29T02:52:27;11.03;75.64
70271;SHT31;57680;54.292;18.598;2023-05-29T02:54:52;11.22;74.95
70271;SHT31;57680;54.292;18.598;2023-05-29T02:57:18;11.51;73.99
70271;SHT31;57680;54.292;18.598;2023-05-29T02:59:43;11.79;73.27
70271;SHT31;57680;54.292;18.598;2023-05-29T03:02:08;12.05;72.25
70271;SHT31;57680;54.292;18.598;2023-05-29T03:04:34;12.21;71.82
70271;SHT31;57680;54.292;18.598;2023-05-29T03:06:59;12.37;70.80
70271;SHT31;57680;54.292;18.598;2023-05-29T03:09:25;12.44;71.22
70271;SHT31;57680;54.292;18.598;2023-05-29T03:11:50;12.59;70.84
70271;SHT31;57680;54.292;18.598;2023-05-29T03:14:16;12.84;70.39
70271;SHT31;57680;54.292;18.598;2023-05-29T03:16:43;13.07;69.64
70271;SHT31;57680;54.292;18.598;2023-05-29T03:19:09;13.14;70.04
70271;SHT31;57680;54.292;18.598;2023-05-29T03:21:34;13.34;69.49
70271;SHT31;57680;54.292;18.598;2023-05-29T03:23:59;13.51;68.49
70271;SHT31;57680;54.292;18.598;2023-05-29T03:26:25;13.72;67.97
70271;SHT31;57680;54.292;18.598;2023-05-29T03:28:50;13.94;67.17
70271;SHT31;57680;54.292;18.598;2023-05-29T03:31:15;14.07;67.27
70271;SHT31;57680;54.292;18.598;2023-05-29T03:33:41;14.24;66.16
70271;SHT31;57680;54.292;18.598;2023-05-29T03:36:07;14.40;65.85
70271;SHT31;57680;54.292;18.598;2023-05-29T03:38:32;14.72;66.13
70271;SHT31;57680;54.292;18.598;2023-05-29T03:40:58;14.91;65.18
70271;SHT31;57680;54.292;18.598;2023-05-29T03:43:24;15.16;64.08
70271;SHT31;57680;54.292;18.598;2023-05-29T03:45:50;15.32;64.30
70271;SHT31;57680;54.292;18.598;2023-05-29T03:48:15;15.60;63.25
70271;SHT31;57680;54.292;18.598;2023-05-29T03:50:41;15.67;62.60
70271;SHT31;57680;54.292;18.598;2023-05-29T03:53:06;15.58;62.62
70271;SHT31;57680;54.292;18.598;2023-05-29T03:55:32;15.43;63.56
70271;SHT31;57680;54.292;18.598;2023-05-29T03:57:57;15.64;63.54
70271;SHT31;57680;54.292;18.598;2023-05-29T04:00:22;15.75;62.34
70271;SHT31;57680;54.292;18.598;2023-05-29T04:02:48;15.97;61.45
70271;SHT31;57680;54.292;18.598;2023-05-29T04:05:14;15.95;61.45
70271;SHT31;57680;54.292;18.598;2023-05-29T04:07:39;16.01;62.46
70271;SHT31;57680;54.292;18.598;2023-05-29T04:10:07;16.09;61.07
70271;SHT31;57680;54.292;18.598;2023-05-29T04:12:34;16.25;60.05
70271;SHT31;57680;54.292;18.598;2023-05-29T04:14:59;16.59;59.73
70271;SHT31;57680;54.292;18.598;2023-05-29T04:17:25;16.74;58.88
70271;SHT31;57680;54.292;18.598;2023-05-29T04:19:50;17.10;58.64
70271;SHT31;57680;54.292;18.598;2023-05-29T04:22:17;17.22;58.16
70271;SHT31;57680;54.292;18.598;2023-05-29T04:24:42;17.53;57.52
70271;SHT31;57680;54.292;18.598;2023-05-29T04:27:08;17.63;56.28
70271;SHT31;57680;54.292;18.598;2023-05-29T04:29:34;18.04;55.64
70271;SHT31;57680;54.292;18.598;2023-05-29T04:32:00;18.18;53.49
70271;SHT31;57680;54.292;18.598;2023-05-29T04:34:26;18.29;53.64
70271;SHT31;57680;54.292;18.598;2023-05-29T04:36:51;18.51;53.07
70271;SHT31;57680;54.292;18.598;2023-05-29T04:39:17;18.33;53.40
70271;SHT31;57680;54.292;18.598;2023-05-29T04:41:42;17.79;54.49
70271;SHT31;57680;54.292;18.598;2023-05-29T04:44:08;17.68;54.54
70271;SHT31;57680;54.292;18.598;2023-05-29T04:46:33;17.93;54.86
70271;SHT31;57680;54.292;18.598;2023-05-29T04:49:00;18.48;53.36
70271;SHT31;57680;54.292;18.598;2023-05-29T04:51:25;19.02;51.30
70271;SHT31;57680;54.292;18.598;2023-05-29T04:53:51;19.78;51.56
70271;SHT31;57680;54.292;18.598;2023-05-29T04:56:17;19.26;49.44
70271;SHT31;57680;54.292;18.598;2023-05-29T04:58:43;18.54;51.32
70271;SHT31;57680;54.292;18.598;2023-05-29T05:01:08;18.67;52.24
70271;SHT31;57680;54.292;18.598;2023-05-29T05:03:34;19.34;50.14
70271;SHT31;57680;54.292;18.598;2023-05-29T05:06:00;19.59;48.61
70271;SHT31;57680;54.292;18.598;2023-05-29T05:08:26;19.71;48.00
70271;SHT31;57680;54.292;18.598;2023-05-29T05:10:51;19.73;47.03
70271;SHT31;57680;54.292;18.598;2023-05-29T05:13:17;19.85;47.35
70271;SHT31;57680;54.292;18.598;2023-05-29T05:15:42;19.50;48.10
70271;SHT31;57680;54.292;18.598;2023-05-29T05:18:08;19.16;48.64
70271;SHT31;57680;54.292;18.598;2023-05-29T05:20:33;19.46;48.83
70271;SHT31;57680;54.292;18.598;2023-05-29T05:22:59;19.45;48.55
70271;SHT31;57680;54.292;18.598;2023-05-29T05:25:24;19.42;48.34
70271;SHT31;57680;54.292;18.598;2023-05-29T05:27:49;19.39;48.33
70271;SHT31;57680;54.292;18.598;2023-05-29T05:30:15;18.91;48.43
70271;SHT31;57680;54.292;18.598;2023-05-29T05:32:40;18.34;49.81
70271;SHT31;57680;54.292;18.598;2023-05-29T05:35:06;17.86;51.02
70271;SHT31;57680;54.292;18.598;2023-05-29T05:37:31;16.93;51.32
70271;SHT31;57680;54.292;18.598;2023-05-29T05:39:57;16.43;53.07
70271;SHT31;57680;54.292;18.598;2023-05-29T05:42:22;16.06;53.54
70271;SHT31;57680;54.292;18.598;2023-05-29T05:44:48;15.73;55.46
70271;SHT31;57680;54.292;18.598;2023-05-29T05:47:13;15.40;55.28
70271;SHT31;57680;54.292;18.598;2023-05-29T05:49:38;15.26;55.94
70271;SHT31;57680;54.292;18.598;2023-05-29T05:52:04;15.18;56.52
70271;SHT31;57680;54.292;18.598;2023-05-29T05:54:30;15.16;56.61
70271;SHT31;57680;54.292;18.598;2023-05-29T05:56:55;15.29;58.33
70271;SHT31;57680;54.292;18.598;2023-05-29T05:59:22;15.26;58.70
70271;SHT31;57680;54.292;18.598;2023-05-29T06:01:47;15.20;59.42
70271;SHT31;57680;54.292;18.598;2023-05-29T06:04:12;15.19;59.81
70271;SHT31;57680;54.292;18.598;2023-05-29T06:06:37;15.57;60.34
70271;SHT31;57680;54.292;18.598;2023-05-29T06:09:03;15.85;56.37
70271;SHT31;57680;54.292;18.598;2023-05-29T06:11:28;15.80;55.43
70271;SHT31;57680;54.292;18.598;2023-05-29T06:13:54;16.53;53.85
70271;SHT31;57680;54.292;18.598;2023-05-29T06:16:20;16.99;53.03
70271;SHT31;57680;54.292;18.598;2023-05-29T06:18:45;17.46;54.01
70271;SHT31;57680;54.292;18.598;2023-05-29T06:21:12;17.69;54.72
70271;SHT31;57680;54.292;18.598;2023-05-29T06:23:38;17.89;52.35
70271;SHT31;57680;54.292;18.598;2023-05-29T06:26:03;18.10;52.06
70271;SHT31;57680;54.292;18.598;2023-05-29T06:28:29;18.50;52.87
70271;SHT31;57680;54.292;18.598;2023-05-29T06:30:54;19.15;50.60
70271;SHT31;57680;54.292;18.598;2023-05-29T06:33:20;19.02;48.47
70271;SHT31;57680;54.292;18.598;2023-05-29T06:35:45;19.32;52.44
70271;SHT31;57680;54.292;18.598;2023-05-29T06:38:11;19.19;48.08
70271;SHT31;57680;54.292;18.598;2023-05-29T06:40:36;19.20;50.92
70271;SHT31;57680;54.292;18.598;2023-05-29T06:43:02;19.11;50.73
70271;SHT31;57680;54.292;18.598;2023-05-29T06:45:27;19.13;51.09
70271;SHT31;57680;54.292;18.598;2023-05-29T06:47:53;19.05;48.57
70271;SHT31;57680;54.292;18.598;2023-05-29T06:50:19;19.08;48.12
70271;SHT31;57680;54.292;18.598;2023-05-29T06:52:44;18.72;49.34
70271;SHT31;57680;54.292;18.598;2023-05-29T06:55:10;18.48;48.94
70271;SHT31;57680;54.292;18.598;2023-05-29T06:57:36;18.27;50.95
70271;SHT31;57680;54.292;18.598;2023-05-29T07:00:01;17.94;50.82
70271;SHT31;57680;54.292;18.598;2023-05-29T07:02:26;17.81;51.24
70271;SHT31;57680;54.292;18.598;2023-05-29T07:04:52;18.18;52.12
70271;SHT31;57680;54.292;18.598;2023-05-29T07:07:17;17.96;50.57
70271;SHT31;57680;54.292;18.598;2023-05-29T07:09:43;17.93;49.98
70271;SHT31;57680;54.292;18.598;2023-05-29T07:12:08;17.85;50.12
70271;SHT31;57680;54.292;18.598;2023-05-29T07:14:34;17.94;49.88
70271;SHT31;57680;54.292;18.598;2023-05-29T07:16:59;17.93;49.34
70271;SHT31;57680;54.292;18.598;2023-05-29T07:19:25;18.36;51.63
70271;SHT31;57680;54.292;18.598;2023-05-29T07:21:51;18.54;49.33
70271;SHT31;57680;54.292;18.598;2023-05-29T07:24:17;18.54;48.50
70271;SHT31;57680;54.292;18.598;2023-05-29T07:26:42;18.43;49.43
70271;SHT31;57680;54.292;18.598;2023-05-29T07:29:09;18.37;49.54
70271;SHT31;57680;54.292;18.598;2023-05-29T07:31:36;18.41;50.15
70271;SHT31;57680;54.292;18.598;2023-05-29T07:34:01;18.58;47.76
70271;SHT31;57680;54.292;18.598;2023-05-29T07:36:30;18.55;47.89
70271;SHT31;57680;54.292;18.598;2023-05-29T07:38:56;18.54;48.66
70271;SHT31;57680;54.292;18.598;2023-05-29T07:41:21;18.81;49.00
70271;SHT31;57680;54.292;18.598;2023-05-29T07:43:47;19.02;48.80
70271;SHT31;57680;54.292;18.598;2023-05-29T07:46:12;18.92;46.23
70271;SHT31;57680;54.292;18.598;2023-05-29T07:48:38;18.68;47.29
70271;SHT31;57680;54.292;18.598;2023-05-29T07:51:03;18.81;47.58
70271;SHT31;57680;54.292;18.598;2023-05-29T07:53:29;18.76;48.29
70271;SHT31;57680;54.292;18.598;2023-05-29T07:55:54;18.75;48.40
70271;SHT31;57680;54.292;18.598;2023-05-29T07:58:20;18.52;45.73
70271;SHT31;57680;54.292;18.598;2023-05-29T08:00:45;18.55;46.28
70271;SHT31;57680;54.292;18.598;2023-05-29T08:03:11;18.58;47.32
70271;SHT31;57680;54.292;18.598;2023-05-29T08:05:36;18.65;46.32
70271;SHT31;57680;54.292;18.598;2023-05-29T08:08:01;18.58;47.34
70271;SHT31;57680;54.292;18.598;2023-05-29T08:10:27;18.64;46.96
70271;SHT31;57680;54.292;18.598;2023-05-29T08:12:52;18.45;47.68
70271;SHT31;57680;54.292;18.598;2023-05-29T08:15:18;18.81;47.94
70271;SHT31;57680;54.292;18.598;2023-05-29T08:17:44;19.13;47.64
70271;SHT31;57680;54.292;18.598;2023-05-29T08:20:10;19.16;44.98
70271;SHT31;57680;54.292;18.598;2023-05-29T08:22:35;19.29;46.96
70271;SHT31;57680;54.292;18.598;2023-05-29T08:25:01;19.30;48.62
70271;SHT31;57680;54.292;18.598;2023-05-29T08:27:26;19.70;48.10
70271;SHT31;57680;54.292;18.598;2023-05-29T08:29:52;19.78;48.49
70271;SHT31;57680;54.292;18.598;2023-05-29T08:32:18;19.57;43.69
70271;SHT31;57680;54.292;18.598;2023-05-29T08:34:43;18.92;43.51
70271;SHT31;57680;54.292;18.598;2023-05-29T08:37:08;18.47;42.10
70271;SHT31;57680;54.292;18.598;2023-05-29T08:39:34;18.48;44.07
70271;SHT31;57680;54.292;18.598;2023-05-29T08:42:10;18.47;43.61
70271;SHT31;57680;54.292;18.598;2023-05-29T08:44:39;18.38;43.40
70271;SHT31;57680;54.292;18.598;2023-05-29T08:47:06;18.29;43.62
70271;SHT31;57680;54.292;18.598;2023-05-29T08:49:40;18.33;44.61
70271;SHT31;57680;54.292;18.598;2023-05-29T08:52:11;18.84;42.91
70271;SHT31;57680;54.292;18.598;2023-05-29T08:54:37;18.91;41.70
70271;SHT31;57680;54.292;18.598;2023-05-29T08:57:03;19.03;45.98
70271;SHT31;57680;54.292;18.598;2023-05-29T08:59:30;19.29;43.64
70271;SHT31;57680;54.292;18.598;2023-05-29T09:01:56;19.36;42.95
70271;SHT31;57680;54.292;18.598;2023-05-29T09:04:22;19.22;42.08
70271;SHT31;57680;54.292;18.598;2023-05-29T09:06:47;19.18;45.61
70271;SHT31;57680;54.292;18.598;2023-05-29T09:09:13;19.18;40.99
70271;SHT31;57680;54.292;18.598;2023-05-29T09:11:38;18.91;40.46
70271;SHT31;57680;54.292;18.598;2023-05-29T09:14:03;18.54;41.93
70271;SHT31;57680;54.292;18.598;2023-05-29T09:16:29;18.48;42.00
70271;SHT31;57680;54.292;18.598;2023-05-29T09:19:07;18.78;41.89
70271;SHT31;57680;54.292;18.598;2023-05-29T09:21:32;18.88;39.13
70271;SHT31;57680;54.292;18.598;2023-05-29T09:24:03;18.67;38.50
70271;SHT31;57680;54.292;18.598;2023-05-29T09:26:29;18.69;40.78
70271;SHT31;57680;54.292;18.598;2023-05-29T09:28:55;18.81;42.57
70271;SHT31;57680;54.292;18.598;2023-05-29T09:31:20;18.79;38.40
70271;SHT31;57680;54.292;18.598;2023-05-29T09:33:49;19.24;39.22
70271;SHT31;57680;54.292;18.598;2023-05-29T10:05:01;19.13;36.97
70271;SHT31;57680;54.292;18.598;2023-05-29T10:07:27;19.33;36.83
70271;SHT31;57680;54.292;18.598;2023-05-29T10:09:59;19.47;37.57
70271;SHT31;57680;54.292;18.598;2023-05-29T10:12:26;19.56;37.52
70271;SHT31;57680;54.292;18.598;2023-05-29T10:14:56;19.61;37.17
70271;SHT31;57680;54.292;18.598;2023-05-29T10:17:26;19.81;36.47
70271;SHT31;57680;54.292;18.598;2023-05-29T10:19:56;19.90;40.12
70271;SHT31;57680;54.292;18.598;2023-05-29T10:22:24;20.14;39.95
70271;SHT31;57680;54.292;18.598;2023-05-29T10:24:53;20.38;37.51
70271;SHT31;57680;54.292;18.598;2023-05-29T10:27:18;20.63;36.78
70271;SHT31;57680;54.292;18.598;2023-05-29T10:29:49;20.42;36.21
70271;SHT31;57680;54.292;18.598;2023-05-29T10:40:06;19.09;48.22
70271;SHT31;57680;54.292;18.598;2023-05-29T10:42:48;18.79;48.65
70271;SHT31;57680;54.292;18.598;2023-05-29T10:50:46;18.72;50.36
70271;SHT31;57680;54.292;18.598;2023-05-29T10:53:26;18.20;49.77
70271;SHT31;57680;54.292;18.598;2023-05-29T10:55:52;17.66;51.28
70271;SHT31;57680;54.292;18.598;2023-05-29T11:00:45;17.81;50.81
70271;SHT31;57680;54.292;18.598;2023-05-29T11:03:11;18.17;50.09
70271;SHT31;57680;54.292;18.598;2023-05-29T11:05:58;18.29;50.06
70271;SHT31;57680;54.292;18.598;2023-05-29T11:10:58;18.62;48.94
70271;SHT31;57680;54.292;18.598;2023-05-29T11:18:47;18.48;49.20
70271;SHT31;57680;54.292;18.598;2023-05-29T11:23:59;18.51;49.19
70271;SHT31;57680;54.292;18.598;2023-05-29T11:26:27;18.30;49.19
70271;SHT31;57680;54.292;18.598;2023-05-29T11:28:53;18.26;48.69
70271;SHT31;57680;54.292;18.598;2023-05-29T11:31:19;18.29;49.24
70271;SHT31;57680;54.292;18.598;2023-05-29T11:33:49;18.18;50.29
70271;SHT31;57680;54.292;18.598;2023-05-29T11:36:15;18.07;49.06
70271;SHT31;57680;54.292;18.598;2023-05-29T11:38:41;18.12;48.74
70271;SHT31;57680;54.292;18.598;2023-05-29T11:41:06;18.23;48.60
70271;SHT31;57680;54.292;18.598;2023-05-29T11:43:32;18.31;48.68
70271;SHT31;57680;54.292;18.598;2023-05-29T11:45:58;18.38;48.59
70271;SHT31;57680;54.292;18.598;2023-05-29T11:48:23;18.33;48.14
70271;SHT31;57680;54.292;18.598;2023-05-29T11:50:49;18.31;48.08
70271;SHT31;57680;54.292;18.598;2023-05-29T11:53:14;18.10;47.83
70271;SHT31;57680;54.292;18.598;2023-05-29T11:55:40;17.93;47.95
70271;SHT31;57680;54.292;18.598;2023-05-29T11:58:05;18.07;48.04
70271;SHT31;57680;54.292;18.598;2023-05-29T12:00:36;18.10;47.82
70271;SHT31;57680;54.292;18.598;2023-05-29T12:03:02;18.06;47.95
70271;SHT31;57680;54.292;18.598;2023-05-29T12:05:28;18.17;48.08
70271;SHT31;57680;54.292;18.598;2023-05-29T12:07:54;18.17;47.39
70271;SHT31;57680;54.292;18.598;2023-05-29T12:10:21;18.12;48.22
70271;SHT31;57680;54.292;18.598;2023-05-29T12:12:54;18.30;47.47
70271;SHT31;57680;54.292;18.598;2023-05-29T12:15:21;18.29;46.61
70271;SHT31;57680;54.292;18.598;2023-05-29T12:17:46;18.43;47.18
70271;SHT31;57680;54.292;18.598;2023-05-29T12:20:13;18.40;45.84
70271;SHT31;57680;54.292;18.598;2023-05-29T12:22:40;18.20;46.87
70271;SHT31;57680;54.292;18.598;2023-05-29T12:25:11;18.21;47.54
70271;SHT31;57680;54.292;18.598;2023-05-29T12:27:40;18.21;46.30
70271;SHT31;57680;54.292;18.598;2023-05-29T12:30:10;18.27;46.27
70271;SHT31;57680;54.292;18.598;2023-05-29T12:32:37;18.17;45.86
70271;SHT31;57680;54.292;18.598;2023-05-29T12:37:46;18.17;44.93
70271;SHT31;57680;54.292;18.598;2023-05-29T12:40:24;18.09;45.92
70271;SHT31;57680;54.292;18.598;2023-05-29T12:42:58;18.02;45.58
70271;SHT31;57680;54.292;18.598;2023-05-29T12:45:28;18.10;44.98
70271;SHT31;57680;54.292;18.598;2023-05-29T12:47:58;18.12;44.41
70271;SHT31;57680;54.292;18.598;2023-05-29T12:50:29;18.14;44.17
70271;SHT31;57680;54.292;18.598;2023-05-29T12:52:55;18.07;44.89
70271;SHT31;57680;54.292;18.598;2023-05-29T12:55:21;18.03;43.35
70271;SHT31;57680;54.292;18.598;2023-05-29T12:57:47;17.92;43.43
70271;SHT31;57680;54.292;18.598;2023-05-29T13:00:13;18.00;43.30
70271;SHT31;57680;54.292;18.598;2023-05-29T13:02:39;18.04;43.43
70271;SHT31;57680;54.292;18.598;2023-05-29T13:05:06;17.94;43.67
70271;SHT31;57680;54.292;18.598;2023-05-29T13:07:32;18.13;43.75
70271;SHT31;57680;54.292;18.598;2023-05-29T13:09:59;17.97;43.26
70271;SHT31;57680;54.292;18.598;2023-05-29T13:12:25;18.06;43.32
70271;SHT31;57680;54.292;18.598;2023-05-29T13:14:51;18.13;43.52
70271;SHT31;57680;54.292;18.598;2023-05-29T13:17:16;18.17;43.44
70271;SHT31;57680;54.292;18.598;2023-05-29T13:19:42;18.04;43.92
70271;SHT31;57680;54.292;18.598;2023-05-29T13:22:07;18.10;44.25
70271;SHT31;57680;54.292;18.598;2023-05-29T13:24:33;18.09;44.33
70271;SHT31;57680;54.292;18.598;2023-05-29T13:26:58;18.07;44.83
70271;SHT31;57680;54.292;18.598;2023-05-29T13:29:24;18.03;43.76
70271;SHT31;57680;54.292;18.598;2023-05-29T13:31:49;17.96;44.77
70271;SHT31;57680;54.292;18.598;2023-05-29T13:34:15;17.94;45.96
70271;SHT31;57680;54.292;18.598;2023-05-29T13:36:40;17.93;45.42
70271;SHT31;57680;54.292;18.598;2023-05-29T13:39:06;17.94;45.06
70271;SHT31;57680;54.292;18.598;2023-05-29T13:41:31;17.92;46.05
70271;SHT31;57680;54.292;18.598;2023-05-29T13:43:57;17.94;45.58
70271;SHT31;57680;54.292;18.598;2023-05-29T13:46:22;17.87;46.26
70271;SHT31;57680;54.292;18.598;2023-05-29T13:48:48;17.78;46.84
70271;SHT31;57680;54.292;18.598;2023-05-29T13:51:13;17.76;45.91
70271;SHT31;57680;54.292;18.598;2023-05-29T13:53:39;17.62;46.25
70271;SHT31;57680;54.292;18.598;2023-05-29T13:56:05;17.65;47.10
70271;SHT31;57680;54.292;18.598;2023-05-29T13:58:30;17.72;47.46
70271;SHT31;57680;54.292;18.598;2023-05-29T14:00:56;17.66;47.71
70271;SHT31;57680;54.292;18.598;2023-05-29T14:03:21;17.79;48.16
70271;SHT31;57680;54.292;18.598;2023-05-29T14:05:46;17.75;49.16
70271;SHT31;57680;54.292;18.598;2023-05-29T14:08:12;17.79;49.77
70271;SHT31;57680;54.292;18.598;2023-05-29T14:10:37;17.72;50.23
70271;SHT31;57680;54.292;18.598;2023-05-29T14:13:03;17.69;49.92
70271;SHT31;57680;54.292;18.598;2023-05-29T14:15:29;17.59;50.26
70271;SHT31;57680;54.292;18.598;2023-05-29T14:17:54;17.58;50.45
70271;SHT31;57680;54.292;18.598;2023-05-29T14:20:20;17.52;52.30
70271;SHT31;57680;54.292;18.598;2023-05-29T14:22:45;17.62;52.03
70271;SHT31;57680;54.292;18.598;2023-05-29T14:25:11;17.53;51.33
70271;SHT31;57680;54.292;18.598;2023-05-29T14:27:36;17.48;52.52
70271;SHT31;57680;54.292;18.598;2023-05-29T14:30:02;17.36;53.45
70271;SHT31;57680;54.292;18.598;2023-05-29T14:32:28;17.31;53.66
70271;SHT31;57680;54.292;18.598;2023-05-29T14:34:54;17.28;54.11
70271;SHT31;57680;54.292;18.598;2023-05-29T14:37:19;17.28;54.12
70271;SHT31;57680;54.292;18.598;2023-05-29T14:39:44;17.28;54.10
70271;SHT31;57680;54.292;18.598;2023-05-29T14:42:10;17.17;54.50
70271;SHT31;57680;54.292;18.598;2023-05-29T14:44:35;17.10;54.56
70271;SHT31;57680;54.292;18.598;2023-05-29T14:47:01;17.15;55.16
70271;SHT31;57680;54.292;18.598;2023-05-29T14:49:26;17.10;55.05
70271;SHT31;57680;54.292;18.598;2023-05-29T14:51:51;17.15;56.23
70271;SHT31;57680;54.292;18.598;2023-05-29T14:54:17;17.27;54.97
70271;SHT31;57680;54.292;18.598;2023-05-29T14:56:43;17.20;55.11
70271;SHT31;57680;54.292;18.598;2023-05-29T14:59:08;17.24;55.40
70271;SHT31;57680;54.292;18.598;2023-05-29T15:01:33;17.11;56.00
70271;SHT31;57680;54.292;18.598;2023-05-29T15:03:59;17.01;56.50
70271;SHT31;57680;54.292;18.598;2023-05-29T15:06:24;16.90;57.28
70271;SHT31;57680;54.292;18.598;2023-05-29T15:08:50;16.80;57.34
70271;SHT31;57680;54.292;18.598;2023-05-29T15:11:16;16.74;57.94
70271;SHT31;57680;54.292;18.598;2023-05-29T15:13:41;16.81;57.94
70271;SHT31;57680;54.292;18.598;2023-05-29T15:16:07;16.76;57.83
70271;SHT31;57680;54.292;18.598;2023-05-29T15:18:33;16.69;58.50
70271;SHT31;57680;54.292;18.598;2023-05-29T15:20:59;16.62;59.15
70271;SHT31;57680;54.292;18.598;2023-05-29T15:23:25;16.62;59.43
70271;SHT31;57680;54.292;18.598;2023-05-29T15:25:51;16.60;60.80
70271;SHT31;57680;54.292;18.598;2023-05-29T15:28:17;16.53;61.94
70271;SHT31;57680;54.292;18.598;2023-05-29T15:30:43;16.53;60.61
70271;SHT31;57680;54.292;18.598;2023-05-29T15:33:08;16.52;61.19
70271;SHT31;57680;54.292;18.598;2023-05-29T15:35:34;16.52;61.57
70271;SHT31;57680;54.292;18.598;2023-05-29T15:37:59;16.55;61.70
70271;SHT31;57680;54.292;18.598;2023-05-29T15:40:24;16.53;61.30
70271;SHT31;57680;54.292;18.598;2023-05-29T15:42:50;16.53;62.05
70271;SHT31;57680;54.292;18.598;2023-05-29T15:45:16;16.49;61.99
70271;SHT31;57680;54.292;18.598;2023-05-29T15:47:41;16.36;62.25
70271;SHT31;57680;54.292;18.598;2023-05-29T15:50:07;16.23;62.28
70271;SHT31;57680;54.292;18.598;2023-05-29T15:52:32;16.13;62.91
70271;SHT31;57680;54.292;18.598;2023-05-29T15:54:58;16.05;63.11
70271;SHT31;57680;54.292;18.598;2023-05-29T15:57:23;16.06;63.94
70271;SHT31;57680;54.292;18.598;2023-05-29T15:59:49;16.06;62.09
70271;SHT31;57680;54.292;18.598;2023-05-29T16:02:14;16.09;61.82
70271;SHT31;57680;54.292;18.598;2023-05-29T16:04:40;16.12;60.73
70271;SHT31;57680;54.292;18.598;2023-05-29T16:07:06;16.18;60.45
70271;SHT31;57680;54.292;18.598;2023-05-29T16:09:31;16.22;61.13
70271;SHT31;57680;54.292;18.598;2023-05-29T16:11:57;16.25;60.60
70271;SHT31;57680;54.292;18.598;2023-05-29T16:14:22;16.25;60.78
70271;SHT31;57680;54.292;18.598;2023-05-29T16:16:48;16.25;61.53
70271;SHT31;57680;54.292;18.598;2023-05-29T16:19:13;16.23;61.42
70271;SHT31;57680;54.292;18.598;2023-05-29T16:21:40;16.18;60.98